Time;durP1;ratioP1;P1;durP2;ratioP2;P2;SDS_P1;SDS_P2;PMS_P1;PMS_P2;Temp;Humidity;BMP_temperature;BMP_pressure;BME280_temperature;BME280_humidity;BME280_pressure;Samples;Min_cycle;Max_cycle;Signal;HPM_P1;HPM_P2
2023/12/04 00:01:28;;;;;;;;;;;0.60;99.90;;;;;;5132070;27;19934;-29
2023/12/04 00:03:55;;;;;;;;;;;0.70;99.90;;;;;;5096719;28;20005;-31
2023/12/04 00:06:24;;;;;;;;;;;0.60;99.90;;;;;;5112712;27;20427;-30
2023/12/04 00:08:50;;;;;;;;;;;0.70;99.90;;;;;;5115935;27;19983;-31
2023/12/04 00:11:17;;;;;;;;;;;0.60;99.90;;;;;;5115352;27;19955;-30
2023/12/04 00:13:43;;;;;;;;;;;0.70;99.90;;;;;;5112978;28;19953;-31
2023/12/04 00:16:10;;;;;;;;;;;0.60;99.90;;;;;;5125790;27;19943;-30
2023/12/04 00:18:37;;;;;;;;;;;0.60;99.90;;;;;;5109132;27;19953;-31
2023/12/04 00:21:04;;;;;;;;;;;0.70;99.90;;;;;;5112595;27;19941;-31
2023/12/04 00:23:32;;;;;;;;;;;0.60;99.90;;;;;;5115357;27;19936;-31
2023/12/04 00:25:59;;;;;;;;;;;0.70;99.90;;;;;;5106535;28;19940;-30
2023/12/04 00:28:25;;;;;;;;;;;0.60;99.90;;;;;;5110198;27;19981;-30
2023/12/04 00:30:52;;;;;;;;;;;0.60;99.90;;;;;;5113711;27;20037;-31
2023/12/04 00:33:19;;;;;;;;;;;0.60;99.90;;;;;;5131786;27;19945;-30
2023/12/04 00:35:45;;;;;;;;;;;0.60;99.90;;;;;;5101470;27;19936;-30
2023/12/04 00:38:12;;;;;;;;;;;0.60;99.90;;;;;;5114318;27;20417;-31
2023/12/04 00:40:40;;;;;;;;;;;0.60;99.90;;;;;;5128032;27;19967;-30
2023/12/04 00:43:06;;;;;;;;;;;0.60;99.90;;;;;;5133613;27;20374;-31
2023/12/04 00:45:33;;;;;;;;;;;0.60;99.90;;;;;;5131678;27;20382;-31
2023/12/04 00:48:00;;;;;;;;;;;0.60;99.90;;;;;;5125994;27;19975;-31
2023/12/04 00:50:26;;;;;;;;;;;0.60;99.90;;;;;;5108926;27;19986;-30
2023/12/04 00:52:53;;;;;;;;;;;0.60;99.90;;;;;;5107990;27;19936;-29
2023/12/04 00:55:20;;;;;;;;;;;0.60;99.90;;;;;;5129151;27;20207;-30
2023/12/04 00:57:48;;;;;;;;;;;0.70;99.90;;;;;;5133658;27;20029;-31
2023/12/04 01:00:15;;;;;;;;;;;0.60;99.90;;;;;;5132174;27;19955;-30
2023/12/04 01:02:42;;;;;;;;;;;0.70;99.90;;;;;;5132323;27;19936;-30
2023/12/04 01:05:08;;;;;;;;;;;0.70;99.90;;;;;;5130392;27;19942;-30
2023/12/04 01:07:35;;;;;;;;;;;0.70;99.90;;;;;;5100427;27;20386;-31
2023/12/04 01:10:01;;;;;;;;;;;0.70;99.90;;;;;;5114689;27;20000;-31
2023/12/04 01:12:28;;;;;;;;;;;0.70;99.90;;;;;;5115062;27;19998;-31
2023/12/04 01:14:56;;;;;;;;;;;0.70;99.90;;;;;;5114821;27;19987;-31
2023/12/04 01:17:23;;;;;;;;;;;0.70;99.90;;;;;;5106494;28;19990;-30
2023/12/04 01:19:49;;;;;;;;;;;0.70;99.90;;;;;;5132369;27;19994;-30
2023/12/04 01:22:16;;;;;;;;;;;0.70;99.90;;;;;;5115001;27;20450;-30
2023/12/04 01:24:43;;;;;;;;;;;0.60;99.90;;;;;;5132930;27;20006;-30
2023/12/04 01:27:10;;;;;;;;;;;0.80;99.90;;;;;;5099409;27;19944;-30
2023/12/04 01:29:37;;;;;;;;;;;0.70;99.90;;;;;;5122553;27;19941;-31
2023/12/04 01:32:05;;;;;;;;;;;0.70;99.90;;;;;;5114138;27;19954;-31
2023/12/04 01:34:32;;;;;;;;;;;0.70;99.90;;;;;;5113902;27;19992;-31
2023/12/04 01:36:59;;;;;;;;;;;0.70;99.90;;;;;;5132004;27;19996;-30
2023/12/04 01:39:26;;;;;;;;;;;0.70;99.90;;;;;;5111271;27;20483;-31
2023/12/04 01:41:52;;;;;;;;;;;0.70;99.90;;;;;;5114184;28;19967;-30
2023/12/04 01:44:19;;;;;;;;;;;0.70;99.90;;;;;;5130053;28;19939;-31
2023/12/04 01:46:46;;;;;;;;;;;0.70;99.90;;;;;;5104148;28;19990;-30
2023/12/04 01:49:14;;;;;;;;;;;0.70;99.90;;;;;;5131728;28;19989;-32
2023/12/04 01:51:40;;;;;;;;;;;0.70;99.90;;;;;;5112117;28;19942;-30
2023/12/04 01:54:07;;;;;;;;;;;0.70;99.90;;;;;;5113193;28;19943;-31
2023/12/04 01:56:34;;;;;;;;;;;0.70;99.90;;;;;;5102451;28;20267;-31
2023/12/04 01:59:01;;;;;;;;;;;0.70;99.90;;;;;;5113064;28;19994;-30
2023/12/04 02:01:27;;;;;;;;;;;0.70;99.90;;;;;;5111088;28;21355;-30
2023/12/04 02:03:54;;;;;;;;;;;0.70;99.90;;;;;;5124255;28;20353;-31
2023/12/04 02:06:22;;;;;;;;;;;0.70;99.90;;;;;;5108158;28;19980;-31
2023/12/04 02:08:49;;;;;;;;;;;0.70;99.90;;;;;;5104200;28;19941;-30
2023/12/04 02:11:16;;;;;;;;;;;0.70;99.90;;;;;;5110938;28;19969;-30
2023/12/04 02:13:42;;;;;;;;;;;0.70;99.90;;;;;;5113032;28;19936;-31
2023/12/04 02:16:10;;;;;;;;;;;0.70;99.90;;;;;;5113615;28;20004;-30
2023/12/04 02:18:36;;;;;;;;;;;0.80;99.90;;;;;;5128768;28;20307;-30
2023/12/04 02:21:03;;;;;;;;;;;0.80;99.90;;;;;;5113713;28;19989;-31
2023/12/04 02:23:31;;;;;;;;;;;0.70;99.90;;;;;;5130191;28;20002;-31
2023/12/04 02:26:00;;;;;;;;;;;0.70;99.90;;;;;;5113283;28;19940;-30
2023/12/04 02:28:27;;;;;;;;;;;0.80;99.90;;;;;;5132478;28;19960;-31
2023/12/04 02:30:54;;;;;;;;;;;0.80;99.90;;;;;;5112364;28;20479;-30
2023/12/04 02:33:21;;;;;;;;;;;0.70;99.90;;;;;;5111834;28;19937;-31
2023/12/04 02:35:47;;;;;;;;;;;0.80;99.90;;;;;;5131042;28;19987;-30
2023/12/04 02:38:14;;;;;;;;;;;0.80;99.90;;;;;;5114277;28;19989;-30
2023/12/04 02:40:40;;;;;;;;;;;0.80;99.90;;;;;;5100910;28;20009;-31
2023/12/04 02:43:08;;;;;;;;;;;0.80;99.90;;;;;;5111141;28;19979;-31
2023/12/04 02:45:35;;;;;;;;;;;0.80;99.90;;;;;;5108041;28;20002;-30
2023/12/04 02:48:02;;;;;;;;;;;0.80;99.90;;;;;;5132153;28;20451;-31
2023/12/04 02:50:28;;;;;;;;;;;0.80;99.90;;;;;;5115089;27;19990;-31
2023/12/04 02:52:55;;;;;;;;;;;0.80;99.90;;;;;;5116762;27;20029;-30
2023/12/04 02:55:21;;;;;;;;;;;0.80;99.90;;;;;;5132157;27;19946;-31
2023/12/04 02:57:48;;;;;;;;;;;0.80;99.90;;;;;;5106350;28;19987;-30
2023/12/04 03:00:16;;;;;;;;;;;0.80;99.90;;;;;;5130440;27;20024;-31
2023/12/04 03:02:43;;;;;;;;;;;0.80;99.90;;;;;;5117537;27;19948;-30
2023/12/04 03:05:10;;;;;;;;;;;0.80;99.90;;;;;;5116579;27;19940;-31
2023/12/04 03:07:37;;;;;;;;;;;0.80;99.90;;;;;;5135287;27;19947;-31
2023/12/04 03:10:03;;;;;;;;;;;0.90;99.90;;;;;;5117355;27;19988;-30
2023/12/04 03:12:30;;;;;;;;;;;0.80;99.90;;;;;;5134764;27;19961;-30
2023/12/04 03:14:57;;;;;;;;;;;0.80;99.90;;;;;;5116829;27;20011;-31
2023/12/04 03:17:25;;;;;;;;;;;0.90;99.90;;;;;;5135430;27;20463;-31
2023/12/04 03:19:51;;;;;;;;;;;0.90;99.90;;;;;;5135970;27;20021;-30
2023/12/04 03:22:18;;;;;;;;;;;0.90;99.90;;;;;;5132266;27;19988;-31
2023/12/04 03:24:45;;;;;;;;;;;0.90;99.90;;;;;;5134960;27;19986;-31
2023/12/04 03:27:12;;;;;;;;;;;0.80;99.90;;;;;;5115766;27;19938;-31
2023/12/04 03:29:38;;;;;;;;;;;0.80;99.90;;;;;;5134238;27;19941;-31
2023/12/04 03:32:05;;;;;;;;;;;0.80;99.90;;;;;;5131684;27;19938;-32
2023/12/04 03:34:33;;;;;;;;;;;0.90;99.90;;;;;;5115824;27;20394;-30
2023/12/04 03:37:00;;;;;;;;;;;0.80;99.90;;;;;;5115686;27;19985;-31
2023/12/04 03:39:26;;;;;;;;;;;0.80;99.90;;;;;;5115833;27;20004;-31
2023/12/04 03:41:53;;;;;;;;;;;0.90;99.90;;;;;;5115901;27;19940;-31
2023/12/04 03:44:19;;;;;;;;;;;0.90;99.90;;;;;;5128492;27;20453;-31
2023/12/04 03:46:46;;;;;;;;;;;0.80;99.90;;;;;;5115900;27;19935;-31
2023/12/04 03:49:13;;;;;;;;;;;0.90;99.90;;;;;;5116303;27;19975;-30
2023/12/04 03:51:41;;;;;;;;;;;0.90;99.90;;;;;;5115946;27;19939;-30
2023/12/04 03:54:07;;;;;;;;;;;0.80;99.90;;;;;;5116958;27;19939;-30
2023/12/04 03:56:34;;;;;;;;;;;0.80;99.90;;;;;;5134436;27;20362;-30
2023/12/04 03:59:00;;;;;;;;;;;0.90;99.90;;;;;;5125764;27;19940;-31
2023/12/04 04:01:27;;;;;;;;;;;0.90;99.90;;;;;;5123677;27;19999;-30
2023/12/04 04:03:54;;;;;;;;;;;0.90;99.90;;;;;;5134066;27;20004;-30
2023/12/04 04:06:20;;;;;;;;;;;0.90;99.90;;;;;;5117087;27;19942;-31
2023/12/04 04:08:48;;;;;;;;;;;0.80;99.90;;;;;;5134368;27;19938;-31
2023/12/04 04:11:15;;;;;;;;;;;0.90;99.90;;;;;;5114218;27;19943;-30
2023/12/04 04:13:42;;;;;;;;;;;0.80;99.90;;;;;;5123083;27;20095;-30
2023/12/04 04:16:09;;;;;;;;;;;0.90;99.90;;;;;;5109161;27;19986;-31
2023/12/04 04:18:35;;;;;;;;;;;0.90;99.90;;;;;;5133777;27;19941;-30
2023/12/04 04:21:02;;;;;;;;;;;1.00;99.90;;;;;;5133990;27;20017;-30
2023/12/04 04:23:29;;;;;;;;;;;0.80;99.90;;;;;;5132815;27;19940;-30
2023/12/04 04:25:57;;;;;;;;;;;0.80;99.90;;;;;;5133687;27;19939;-30
2023/12/04 04:28:23;;;;;;;;;;;0.90;99.90;;;;;;5115331;27;20378;-30
2023/12/04 04:30:50;;;;;;;;;;;0.80;99.90;;;;;;5133744;27;20308;-30
2023/12/04 04:33:17;;;;;;;;;;;0.90;99.90;;;;;;5134174;27;19938;-31
2023/12/04 04:35:44;;;;;;;;;;;0.90;99.90;;;;;;5111619;27;19940;-30
2023/12/04 04:38:10;;;;;;;;;;;1.00;99.90;;;;;;5129201;27;19949;-31
2023/12/04 04:40:41;;;;;;;;;;;0.90;99.90;;;;;;5111727;27;19957;-30
2023/12/04 04:43:10;;;;;;;;;;;0.90;99.90;;;;;;5131057;27;20398;-30
2023/12/04 04:45:37;;;;;;;;;;;0.90;99.90;;;;;;5114076;27;19977;-30
2023/12/04 04:48:04;;;;;;;;;;;0.90;99.90;;;;;;5114368;27;19987;-30
2023/12/04 04:50:30;;;;;;;;;;;0.90;99.90;;;;;;5131702;27;19936;-31
2023/12/04 04:52:57;;;;;;;;;;;0.90;99.90;;;;;;5115488;27;19943;-30
2023/12/04 04:55:24;;;;;;;;;;;1.00;99.90;;;;;;5115265;27;19962;-31
2023/12/04 04:57:50;;;;;;;;;;;0.90;99.90;;;;;;5129580;27;20004;-31
2023/12/04 05:00:19;;;;;;;;;;;0.90;99.90;;;;;;5110314;27;20457;-31
2023/12/04 05:02:46;;;;;;;;;;;1.00;99.90;;;;;;5129889;27;19975;-30
2023/12/04 05:05:12;;;;;;;;;;;1.00;99.90;;;;;;5112905;27;19941;-31
2023/12/04 05:07:39;;;;;;;;;;;1.00;99.90;;;;;;5108620;28;19939;-30
2023/12/04 05:10:06;;;;;;;;;;;0.90;99.90;;;;;;5108930;28;20390;-30
2023/12/04 05:12:33;;;;;;;;;;;0.90;99.90;;;;;;5115926;27;19954;-32
2023/12/04 05:14:59;;;;;;;;;;;0.90;99.90;;;;;;5132263;27;19985;-30
2023/12/04 05:17:27;;;;;;;;;;;0.90;99.90;;;;;;5113585;27;19980;-31
2023/12/04 05:19:54;;;;;;;;;;;0.90;99.90;;;;;;5126015;27;19944;-31
2023/12/04 05:22:21;;;;;;;;;;;0.90;99.90;;;;;;5109666;27;20072;-29
2023/12/04 05:24:47;;;;;;;;;;;0.90;99.90;;;;;;5103777;27;20000;-30
2023/12/04 05:27:14;;;;;;;;;;;0.90;99.90;;;;;;5112711;27;19947;-31
2023/12/04 05:29:40;;;;;;;;;;;0.90;99.90;;;;;;5132486;27;19993;-31
2023/12/04 05:32:07;;;;;;;;;;;0.90;99.90;;;;;;5114567;27;19948;-30
2023/12/04 05:34:35;;;;;;;;;;;0.90;99.90;;;;;;5114673;27;19948;-30
2023/12/04 05:37:02;;;;;;;;;;;1.00;99.90;;;;;;5125254;27;19947;-30
2023/12/04 05:39:28;;;;;;;;;;;0.90;99.90;;;;;;5131177;27;20295;-31
2023/12/04 05:41:55;;;;;;;;;;;1.00;99.90;;;;;;5113690;27;19955;-31
2023/12/04 05:44:21;;;;;;;;;;;0.90;99.90;;;;;;5114299;28;19940;-31
2023/12/04 05:46:48;;;;;;;;;;;0.90;99.90;;;;;;5132751;27;19991;-29
2023/12/04 05:49:15;;;;;;;;;;;0.90;99.90;;;;;;5113066;27;20302;-31
2023/12/04 05:51:43;;;;;;;;;;;1.00;99.90;;;;;;5132779;28;19936;-31
2023/12/04 05:54:09;;;;;;;;;;;0.90;99.90;;;;;;5107635;28;19991;-31
2023/12/04 05:56:36;;;;;;;;;;;0.90;99.90;;;;;;5128724;28;19968;-30
2023/12/04 05:59:03;;;;;;;;;;;1.00;99.90;;;;;;5132556;28;19998;-31
2023/12/04 06:01:29;;;;;;;;;;;0.90;99.90;;;;;;5120801;28;20439;-30
2023/12/04 06:03:56;;;;;;;;;;;0.90;99.90;;;;;;5103174;28;19996;-31
2023/12/04 06:06:23;;;;;;;;;;;0.90;99.90;;;;;;5114619;28;19973;-30
2023/12/04 06:08:51;;;;;;;;;;;0.90;99.90;;;;;;5109941;28;19997;-30
2023/12/04 06:11:17;;;;;;;;;;;0.90;99.90;;;;;;5101445;28;19940;-30
2023/12/04 06:13:44;;;;;;;;;;;1.00;99.90;;;;;;5125923;28;19934;-31
2023/12/04 06:16:11;;;;;;;;;;;0.90;99.90;;;;;;5103631;28;19981;-31
2023/12/04 06:18:37;;;;;;;;;;;0.90;99.90;;;;;;5132384;28;19939;-31
2023/12/04 06:21:04;;;;;;;;;;;0.90;99.90;;;;;;5113684;28;20043;-31
2023/12/04 06:23:31;;;;;;;;;;;0.90;99.90;;;;;;5132310;28;19942;-30
2023/12/04 06:26:00;;;;;;;;;;;0.90;99.90;;;;;;5130755;27;19946;-31
2023/12/04 06:28:27;;;;;;;;;;;0.90;99.90;;;;;;5111452;27;19948;-31
2023/12/04 06:30:54;;;;;;;;;;;0.90;99.90;;;;;;5122143;27;19940;-30
2023/12/04 06:33:21;;;;;;;;;;;0.90;99.90;;;;;;5116701;27;19989;-30
2023/12/04 06:35:48;;;;;;;;;;;0.90;99.90;;;;;;5106688;27;20454;-31
2023/12/04 06:38:15;;;;;;;;;;;0.90;99.90;;;;;;5118793;27;20401;-31
2023/12/04 06:40:43;;;;;;;;;;;0.90;99.90;;;;;;5126737;27;20409;-30
2023/12/04 06:43:11;;;;;;;;;;;0.90;99.90;;;;;;5135483;27;20380;-31
2023/12/04 06:45:38;;;;;;;;;;;0.80;99.90;;;;;;5130896;27;19981;-30
2023/12/04 06:48:05;;;;;;;;;;;0.90;99.90;;;;;;5131202;27;19960;-31
2023/12/04 06:50:31;;;;;;;;;;;0.90;99.90;;;;;;5117980;27;19949;-30
2023/12/04 06:52:59;;;;;;;;;;;0.80;99.90;;;;;;5132277;27;19993;-29
2023/12/04 06:55:26;;;;;;;;;;;0.80;99.90;;;;;;5111509;27;19991;-30
2023/12/04 06:57:53;;;;;;;;;;;0.80;99.90;;;;;;5132169;27;19936;-31
2023/12/04 07:00:21;;;;;;;;;;;0.90;99.90;;;;;;5128538;27;20274;-31
2023/12/04 07:02:47;;;;;;;;;;;0.90;99.90;;;;;;5108305;27;19984;-30
2023/12/04 07:05:14;;;;;;;;;;;0.80;99.90;;;;;;5112338;27;20409;-31
2023/12/04 07:07:41;;;;;;;;;;;0.90;99.90;;;;;;5123029;27;19940;-32
2023/12/04 07:10:08;;;;;;;;;;;0.90;99.90;;;;;;5097167;28;19938;-30
2023/12/04 07:12:35;;;;;;;;;;;0.90;99.90;;;;;;5115223;28;19963;-31
2023/12/04 07:15:01;;;;;;;;;;;0.80;99.90;;;;;;5115479;28;19952;-31
2023/12/04 07:17:29;;;;;;;;;;;0.80;99.90;;;;;;5119190;27;20008;-30
2023/12/04 07:19:56;;;;;;;;;;;0.90;99.90;;;;;;5135319;27;20380;-30
2023/12/04 07:22:23;;;;;;;;;;;0.80;99.90;;;;;;5133313;27;20004;-31
2023/12/04 07:24:49;;;;;;;;;;;0.90;99.90;;;;;;5099844;27;19936;-30
2023/12/04 07:27:17;;;;;;;;;;;0.80;99.90;;;;;;5135000;27;19950;-30
2023/12/04 07:29:43;;;;;;;;;;;0.80;99.90;;;;;;5129908;27;19943;-31
2023/12/04 07:32:10;;;;;;;;;;;0.80;99.90;;;;;;5113024;28;20141;-30
2023/12/04 07:34:38;;;;;;;;;;;0.80;99.90;;;;;;5113894;27;19984;-31
2023/12/04 07:37:04;;;;;;;;;;;0.90;99.90;;;;;;5112780;27;20065;-31
2023/12/04 07:39:31;;;;;;;;;;;0.90;99.90;;;;;;5125554;27;19974;-31
2023/12/04 07:41:58;;;;;;;;;;;0.80;99.90;;;;;;5116883;27;20204;-31
2023/12/04 07:44:24;;;;;;;;;;;0.80;99.90;;;;;;5116894;27;20354;-31
2023/12/04 07:46:51;;;;;;;;;;;0.90;99.90;;;;;;5117362;27;20384;-31
2023/12/04 07:49:18;;;;;;;;;;;0.80;99.90;;;;;;5117268;27;19945;-31
2023/12/04 07:51:46;;;;;;;;;;;0.90;99.90;;;;;;5135829;27;19982;-31
2023/12/04 07:54:12;;;;;;;;;;;0.80;99.90;;;;;;5101860;28;19944;-31
2023/12/04 07:56:39;;;;;;;;;;;0.80;99.90;;;;;;5097170;28;19939;-30
2023/12/04 07:59:05;;;;;;;;;;;0.90;99.90;;;;;;5119069;27;20371;-31
2023/12/04 08:01:32;;;;;;;;;;;0.90;99.90;;;;;;5117407;27;19955;-30
2023/12/04 08:03:59;;;;;;;;;;;0.80;99.90;;;;;;5116711;27;19947;-31
2023/12/04 08:06:25;;;;;;;;;;;0.90;99.90;;;;;;5135404;27;19944;-31
2023/12/04 08:08:54;;;;;;;;;;;0.90;99.90;;;;;;5133445;27;19946;-30
2023/12/04 08:11:21;;;;;;;;;;;0.90;99.90;;;;;;5116955;27;19952;-30
2023/12/04 08:13:47;;;;;;;;;;;0.90;99.90;;;;;;5116228;27;20413;-30
2023/12/04 08:16:14;;;;;;;;;;;0.90;99.90;;;;;;5116464;27;19968;-31
2023/12/04 08:18:41;;;;;;;;;;;0.90;99.90;;;;;;5134788;27;19963;-30
2023/12/04 08:21:09;;;;;;;;;;;0.90;99.90;;;;;;5116469;27;20425;-30
2023/12/04 08:23:35;;;;;;;;;;;0.90;99.90;;;;;;5132597;27;19996;-30
2023/12/04 08:26:03;;;;;;;;;;;0.90;99.90;;;;;;5114538;28;19942;-31
2023/12/04 08:28:30;;;;;;;;;;;1.00;99.90;;;;;;5095947;28;19981;-30
2023/12/04 08:30:57;;;;;;;;;;;0.90;99.90;;;;;;5096277;28;19944;-30
2023/12/04 08:33:24;;;;;;;;;;;0.90;99.90;;;;;;5114484;28;20344;-30
2023/12/04 08:35:50;;;;;;;;;;;0.90;99.90;;;;;;5096210;28;20363;-31
2023/12/04 08:38:22;;;;;;;;;;;1.00;99.90;;;;;;5114195;28;19990;-30
2023/12/04 08:40:49;;;;;;;;;;;1.00;99.90;;;;;;5114617;27;19939;-31
2023/12/04 08:43:18;;;;;;;;;;;1.00;99.90;;;;;;5134468;27;19948;-31
2023/12/04 08:45:45;;;;;;;;;;;1.00;99.90;;;;;;5116335;27;19945;-31
2023/12/04 08:48:12;;;;;;;;;;;1.00;99.90;;;;;;5134107;27;19941;-31
2023/12/04 08:50:39;;;;;;;;;;;1.00;99.90;;;;;;5134434;27;19942;-31
2023/12/04 08:53:05;;;;;;;;;;;1.10;99.90;;;;;;5134579;27;19941;-31
2023/12/04 08:55:32;;;;;;;;;;;1.00;99.90;;;;;;5116026;27;19942;-29
2023/12/04 08:57:59;;;;;;;;;;;1.00;99.90;;;;;;5116122;27;19963;-30
2023/12/04 09:00:27;;;;;;;;;;;1.10;99.90;;;;;;5134233;27;20356;-31
2023/12/04 09:02:54;;;;;;;;;;;1.10;99.90;;;;;;5133951;27;20430;-30
2023/12/04 09:05:20;;;;;;;;;;;1.00;99.90;;;;;;5134133;27;19957;-30
2023/12/04 09:07:47;;;;;;;;;;;1.20;99.90;;;;;;5134111;27;20004;-30
2023/12/04 09:10:14;;;;;;;;;;;1.10;99.90;;;;;;5134010;27;20291;-30
2023/12/04 09:12:40;;;;;;;;;;;1.10;99.90;;;;;;5133029;27;19965;-29
2023/12/04 09:15:07;;;;;;;;;;;1.20;99.90;;;;;;5113351;28;19945;-30
2023/12/04 09:17:35;;;;;;;;;;;1.20;99.90;;;;;;5113521;28;19923;-31
2023/12/04 09:20:02;;;;;;;;;;;1.20;99.90;;;;;;5095469;28;19977;-30
2023/12/04 09:22:29;;;;;;;;;;;1.30;99.90;;;;;;5095297;28;19930;-31
2023/12/04 09:24:55;;;;;;;;;;;1.40;99.90;;;;;;5113561;28;19940;-30
2023/12/04 09:27:23;;;;;;;;;;;1.30;99.90;;;;;;5095207;28;19979;-29
2023/12/04 09:29:49;;;;;;;;;;;1.30;99.90;;;;;;5113142;28;19966;-29
2023/12/04 09:32:16;;;;;;;;;;;1.30;99.90;;;;;;5113542;28;20355;-30
2023/12/04 09:34:44;;;;;;;;;;;1.30;99.90;;;;;;5095070;28;19940;-30
2023/12/04 09:37:11;;;;;;;;;;;1.30;99.90;;;;;;5095216;28;19940;-30
2023/12/04 09:39:37;;;;;;;;;;;1.30;99.90;;;;;;5120146;27;20018;-29
2023/12/04 09:42:04;;;;;;;;;;;1.40;99.90;;;;;;5133502;27;19959;-30
2023/12/04 09:44:30;;;;;;;;;;;1.30;99.90;;;;;;5133252;27;19943;-30
2023/12/04 09:46:57;;;;;;;;;;;1.40;99.90;;;;;;5133598;27;20378;-30
2023/12/04 09:49:24;;;;;;;;;;;1.40;99.90;;;;;;5115186;28;19940;-30
2023/12/04 09:51:52;;;;;;;;;;;1.40;99.90;;;;;;5115329;28;20316;-30
2023/12/04 09:54:19;;;;;;;;;;;1.50;99.90;;;;;;5133469;28;20348;-31
2023/12/04 09:56:46;;;;;;;;;;;1.50;99.90;;;;;;5108791;28;19928;-31
2023/12/04 09:59:13;;;;;;;;;;;1.50;99.90;;;;;;5117826;27;20459;-31
2023/12/04 10:01:39;;;;;;;;;;;1.60;99.90;;;;;;5136959;27;19955;-31
2023/12/04 10:04:06;;;;;;;;;;;1.60;99.90;;;;;;5136695;27;20000;-30
2023/12/04 10:06:33;;;;;;;;;;;1.60;99.90;;;;;;5137558;27;19987;-30
2023/12/04 10:09:01;;;;;;;;;;;1.60;99.90;;;;;;5136657;27;19954;-30
2023/12/04 10:11:27;;;;;;;;;;;1.70;99.90;;;;;;5135769;27;19965;-30
2023/12/04 10:13:55;;;;;;;;;;;1.60;99.90;;;;;;5118931;27;20005;-30
2023/12/04 10:16:34;;;;;;;;;;;1.60;99.90;;;;;;5119370;27;19944;-30
2023/12/04 10:19:14;;;;;;;;;;;1.70;99.90;;;;;;5119234;27;19963;-30
2023/12/04 10:21:41;;;;;;;;;;;1.70;99.90;;;;;;5118947;27;19959;-29
2023/12/04 10:24:09;;;;;;;;;;;1.70;99.90;;;;;;5119171;27;20341;-30
2023/12/04 10:26:36;;;;;;;;;;;1.70;99.90;;;;;;5118958;27;20323;-29
2023/12/04 10:29:04;;;;;;;;;;;1.70;99.90;;;;;;5115734;27;19943;-30
2023/12/04 10:31:33;;;;;;;;;;;1.70;99.90;;;;;;5098696;28;20294;-30
2023/12/04 10:33:59;;;;;;;;;;;1.70;99.90;;;;;;5098554;28;19931;-31
2023/12/04 10:36:26;;;;;;;;;;;1.70;99.90;;;;;;5116562;28;19940;-30
2023/12/04 10:38:58;;;;;;;;;;;1.70;99.90;;;;;;5098593;28;19980;-30
2023/12/04 10:41:26;;;;;;;;;;;1.70;99.90;;;;;;5098257;28;19985;-30
2023/12/04 10:43:53;;;;;;;;;;;1.70;99.90;;;;;;5098968;27;19947;-30
2023/12/04 10:46:20;;;;;;;;;;;1.80;99.90;;;;;;5118387;27;19937;-30
2023/12/04 10:48:47;;;;;;;;;;;1.80;99.90;;;;;;5136616;27;19927;-30
2023/12/04 10:51:13;;;;;;;;;;;1.80;99.90;;;;;;5136791;27;19938;-30
2023/12/04 10:53:41;;;;;;;;;;;1.80;99.90;;;;;;5136819;27;19939;-30
2023/12/04 10:56:08;;;;;;;;;;;1.80;99.90;;;;;;5118321;27;19938;-29
2023/12/04 10:58:36;;;;;;;;;;;1.80;99.90;;;;;;5136830;27;20347;-30
2023/12/04 11:01:03;;;;;;;;;;;1.80;99.90;;;;;;5114278;27;20345;-30
2023/12/04 11:03:32;;;;;;;;;;;1.90;99.90;;;;;;5105106;28;20011;-30
2023/12/04 11:06:00;;;;;;;;;;;1.90;99.90;;;;;;5097670;28;19944;-31
2023/12/04 11:08:28;;;;;;;;;;;1.80;99.90;;;;;;5097797;28;20280;-29
2023/12/04 11:10:56;;;;;;;;;;;1.80;99.90;;;;;;5096913;28;19948;-30
2023/12/04 11:13:23;;;;;;;;;;;1.90;99.90;;;;;;5097495;28;20042;-30
2023/12/04 11:15:51;;;;;;;;;;;1.80;99.90;;;;;;5115859;28;19944;-30
2023/12/04 11:18:18;;;;;;;;;;;1.80;99.90;;;;;;5105873;27;19941;-31
2023/12/04 11:20:45;;;;;;;;;;;1.90;99.90;;;;;;5117998;27;20517;-30
2023/12/04 11:23:12;;;;;;;;;;;1.80;99.90;;;;;;5117713;27;19963;-30
2023/12/04 11:25:39;;;;;;;;;;;1.90;99.90;;;;;;5118340;27;20009;-30
2023/12/04 11:28:05;;;;;;;;;;;1.90;99.90;;;;;;5117944;27;20387;-30
2023/12/04 11:30:32;;;;;;;;;;;1.90;99.90;;;;;;5136077;27;19938;-30
2023/12/04 11:33:00;;;;;;;;;;;1.80;99.90;;;;;;5117719;27;20010;-30
2023/12/04 11:35:27;;;;;;;;;;;1.90;99.90;;;;;;5133367;27;20451;-30
2023/12/04 11:37:54;;;;;;;;;;;1.90;99.90;;;;;;5117776;27;19957;-30
2023/12/04 11:40:20;;;;;;;;;;;2.00;99.90;;;;;;5117161;27;19938;-30
2023/12/04 11:42:46;;;;;;;;;;;1.90;99.90;;;;;;5124007;27;20478;-31
2023/12/04 11:45:19;;;;;;;;;;;2.00;99.90;;;;;;5096910;28;19942;-30
2023/12/04 11:47:56;;;;;;;;;;;2.00;99.90;;;;;;5115208;28;20042;-30
2023/12/04 11:50:24;;;;;;;;;;;2.00;99.90;;;;;;5104273;27;19928;-31
2023/12/04 11:52:50;;;;;;;;;;;2.00;99.90;;;;;;5117448;27;19946;-30
2023/12/04 11:55:17;;;;;;;;;;;2.10;99.90;;;;;;5117289;27;19939;-30
2023/12/04 11:57:44;;;;;;;;;;;2.10;99.90;;;;;;5135306;27;19937;-30
2023/12/04 12:00:11;;;;;;;;;;;2.10;99.90;;;;;;5103835;28;20055;-30
2023/12/04 12:02:38;;;;;;;;;;;2.10;99.90;;;;;;5114801;28;19964;-30
2023/12/04 12:05:05;;;;;;;;;;;2.10;99.90;;;;;;5100847;27;19959;-31
2023/12/04 12:07:33;;;;;;;;;;;2.20;99.90;;;;;;5135048;27;20462;-31
2023/12/04 12:10:01;;;;;;;;;;;2.20;99.90;;;;;;5117260;27;19943;-31
2023/12/04 12:12:28;;;;;;;;;;;2.20;99.90;;;;;;5116695;27;20064;-31
2023/12/04 12:14:55;;;;;;;;;;;2.30;99.90;;;;;;5117271;27;20371;-31
2023/12/04 12:17:22;;;;;;;;;;;2.30;99.90;;;;;;5116769;27;19988;-31
2023/12/04 12:19:48;;;;;;;;;;;2.40;99.90;;;;;;5116706;27;19943;-31
2023/12/04 12:22:16;;;;;;;;;;;2.40;99.90;;;;;;5134179;27;20566;-29
2023/12/04 12:24:44;;;;;;;;;;;2.50;99.90;;;;;;5116722;27;19992;-31
2023/12/04 12:27:10;;;;;;;;;;;2.40;99.90;;;;;;5116750;27;19941;-30
2023/12/04 12:29:37;;;;;;;;;;;2.50;99.90;;;;;;5134843;27;20362;-30
2023/12/04 12:32:04;;;;;;;;;;;2.40;99.90;;;;;;5116286;27;19944;-29
2023/12/04 12:34:31;;;;;;;;;;;2.50;99.90;;;;;;5116359;27;20366;-31
2023/12/04 12:36:58;;;;;;;;;;;2.50;99.90;;;;;;5111710;27;19946;-30
2023/12/04 12:39:24;;;;;;;;;;;2.40;99.90;;;;;;5116139;27;19961;-30
2023/12/04 12:41:52;;;;;;;;;;;2.40;99.90;;;;;;5110653;27;19970;-30
2023/12/04 12:44:19;;;;;;;;;;;2.40;99.90;;;;;;5113125;27;20390;-29
2023/12/04 12:46:48;;;;;;;;;;;2.30;99.90;;;;;;5113841;28;19944;-30
2023/12/04 12:49:15;;;;;;;;;;;2.30;99.90;;;;;;5096159;28;20464;-29
2023/12/04 12:51:41;;;;;;;;;;;2.30;99.90;;;;;;5115962;27;19998;-31
2023/12/04 12:54:08;;;;;;;;;;;2.30;99.90;;;;;;5133639;27;19945;-31
2023/12/04 12:56:35;;;;;;;;;;;2.30;99.90;;;;;;5115132;27;19938;-30
2023/12/04 12:59:03;;;;;;;;;;;2.30;99.90;;;;;;5132640;27;19945;-30
2023/12/04 13:01:31;;;;;;;;;;;2.30;99.90;;;;;;5095561;28;19998;-30
2023/12/04 13:03:58;;;;;;;;;;;2.30;99.90;;;;;;5113320;27;19923;-31
2023/12/04 13:06:25;;;;;;;;;;;2.30;99.90;;;;;;5133835;27;19943;-30
2023/12/04 13:08:51;;;;;;;;;;;2.30;99.90;;;;;;5115778;27;19997;-30
2023/12/04 13:11:18;;;;;;;;;;;2.20;99.90;;;;;;5133877;27;20405;-31
2023/12/04 13:13:45;;;;;;;;;;;2.30;99.90;;;;;;5134385;27;20357;-30
2023/12/04 13:16:13;;;;;;;;;;;2.30;99.90;;;;;;5133428;27;20394;-30
2023/12/04 13:18:39;;;;;;;;;;;2.30;99.90;;;;;;5115566;27;20406;-29
2023/12/04 13:21:10;;;;;;;;;;;2.20;99.90;;;;;;5131890;27;19938;-30
2023/12/04 13:23:37;;;;;;;;;;;2.30;99.90;;;;;;5113344;28;19954;-29
2023/12/04 13:26:04;;;;;;;;;;;2.30;99.90;;;;;;5095457;28;19949;-29
2023/12/04 13:28:30;;;;;;;;;;;2.30;99.90;;;;;;5117848;27;19939;-30
2023/12/04 13:30:57;;;;;;;;;;;2.20;99.90;;;;;;5116625;27;19944;-29
2023/12/04 13:33:26;;;;;;;;;;;2.20;99.90;;;;;;5133287;27;20029;-30
2023/12/04 13:35:52;;;;;;;;;;;2.20;99.90;;;;;;5132581;27;20388;-30
2023/12/04 13:38:19;;;;;;;;;;;2.20;99.90;;;;;;5115401;27;20428;-30
2023/12/04 13:40:59;;;;;;;;;;;2.20;99.90;;;;;;5114974;28;19985;-29
2023/12/04 13:46:10;;;;;;;;;;;2.20;99.90;;;;;;5114521;27;20398;-30
2023/12/04 13:48:40;;;;;;;;;;;2.20;99.90;;;;;;5133495;27;19943;-29
2023/12/04 13:51:07;;;;;;;;;;;2.20;99.90;;;;;;5133626;27;19945;-30
2023/12/04 13:53:34;;;;;;;;;;;2.20;99.90;;;;;;5114902;28;19980;-29
2023/12/04 13:56:24;;;;;;;;;;;2.20;99.90;;;;;;5133386;28;20006;-30
2023/12/04 13:58:55;;;;;;;;;;;2.10;99.90;;;;;;5112883;28;20035;-30
2023/12/04 14:01:24;;;;;;;;;;;2.10;99.90;;;;;;5133242;27;20020;-33
2023/12/04 14:03:52;;;;;;;;;;;2.10;99.90;;;;;;5113584;28;19964;-30
2023/12/04 14:06:18;;;;;;;;;;;2.10;99.90;;;;;;5115024;28;19946;-30
2023/12/04 14:08:45;;;;;;;;;;;2.10;99.90;;;;;;5114727;28;20050;-29
2023/12/04 14:11:14;;;;;;;;;;;2.10;99.90;;;;;;5095261;28;19924;-30
2023/12/04 14:13:40;;;;;;;;;;;2.00;99.90;;;;;;5094850;28;19993;-30
2023/12/04 14:16:07;;;;;;;;;;;2.10;99.90;;;;;;5094874;28;19938;-30
2023/12/04 14:18:34;;;;;;;;;;;2.00;99.90;;;;;;5103210;28;19951;-30
2023/12/04 14:21:02;;;;;;;;;;;2.00;99.90;;;;;;5115001;28;19938;-31
2023/12/04 14:23:29;;;;;;;;;;;2.00;99.90;;;;;;5114648;28;19962;-30
2023/12/04 14:25:56;;;;;;;;;;;2.00;99.90;;;;;;5115486;28;19940;-30
2023/12/04 14:28:22;;;;;;;;;;;1.90;99.90;;;;;;5112740;28;20348;-30
2023/12/04 14:30:49;;;;;;;;;;;1.90;99.90;;;;;;5106722;28;19984;-31
2023/12/04 14:33:15;;;;;;;;;;;1.90;99.90;;;;;;5114548;28;19988;-29